createdAt,value
2019-03-21T00:00:59.538Z,99465.31
2019-03-21T00:03:30.707Z,99453.09
2019-03-21T00:06:01.936Z,99462.81
2019-03-21T00:08:32.981Z,99461.65
2019-03-21T00:11:56.983Z,99460.69
2019-03-21T00:14:58.539Z,99453.17
2019-03-21T00:17:40.737Z,99454.72
2019-03-21T00:20:15.765Z,99459.34
2019-03-21T00:22:46.894Z,99460.72
2019-03-21T00:25:21.674Z,99466.97
2019-03-21T00:27:52.632Z,99466.47
2019-03-21T00:30:24.622Z,99470.67
2019-03-21T00:32:56.007Z,99468.55
2019-03-21T00:35:27.567Z,99469.09
2019-03-21T00:38:00.781Z,99467.50
2019-03-21T00:40:35.686Z,99463.72
2019-03-21T00:43:09.162Z,99470.59
2019-03-21T00:45:40.367Z,99463.15
2019-03-21T00:48:14.670Z,99461.50
2019-03-21T00:50:45.817Z,99465.05
2019-03-21T00:53:16.917Z,99460.77
2019-03-21T00:55:49.202Z,99460.83
2019-03-21T00:58:20.332Z,99461.05
2019-03-21T01:00:54.412Z,99462.87
2019-03-21T01:03:25.539Z,99456.25
2019-03-21T01:05:56.710Z,99459.00
2019-03-21T01:08:27.855Z,99455.36
2019-03-21T01:10:59.000Z,99454.92
2019-03-21T01:13:33.159Z,99455.11
2019-03-21T01:16:04.354Z,99456.16
2019-03-21T01:18:36.101Z,99456.52
2019-03-21T01:21:07.328Z,99454.22
2019-03-21T01:23:38.348Z,99453.50
2019-03-21T01:26:09.510Z,99452.61
2019-03-21T01:28:40.676Z,99446.77
2019-03-21T01:31:11.707Z,99447.06
2019-03-21T01:33:42.688Z,99451.56
2019-03-21T01:36:13.861Z,99454.17
2019-03-21T01:38:44.985Z,99450.80
2019-03-21T01:41:16.149Z,99445.20
2019-03-21T01:43:47.229Z,99448.78
2019-03-21T01:46:18.663Z,99443.61
2019-03-21T01:48:49.725Z,99446.52
2019-03-21T01:51:20.869Z,99446.70
2019-03-21T01:53:52.160Z,99447.19
2019-03-21T01:56:23.250Z,99441.66
2019-03-21T01:58:54.330Z,99444.21
2019-03-21T02:01:25.329Z,99442.72
2019-03-21T02:03:56.463Z,99437.06
2019-03-21T02:06:27.513Z,99437.61
2019-03-21T02:08:58.539Z,99431.60
2019-03-21T02:11:29.614Z,99433.77
2019-03-21T02:14:00.884Z,99430.96
2019-03-21T02:16:31.910Z,99424.61
2019-03-21T02:19:03.029Z,99424.13
2019-03-21T02:21:34.103Z,99426.06
2019-03-21T02:24:05.967Z,99421.80
2019-03-21T02:26:37.084Z,99419.91
2019-03-21T02:29:08.297Z,99419.05
2019-03-21T02:31:39.360Z,99427.70
2019-03-21T02:34:10.523Z,99422.02
2019-03-21T02:36:41.660Z,99423.84
2019-03-21T02:39:12.692Z,99425.22
2019-03-21T02:41:43.825Z,99420.91
2019-03-21T02:44:14.969Z,99424.48
2019-03-21T02:46:46.026Z,99431.11
2019-03-21T02:49:16.999Z,99423.84
2019-03-21T02:51:48.183Z,99429.57
2019-03-21T02:54:19.315Z,99422.14
2019-03-21T02:56:50.721Z,99429.92
2019-03-21T02:59:21.935Z,99422.97
2019-03-21T03:01:53.144Z,99419.16
2019-03-21T03:04:24.301Z,99419.38
2019-03-21T03:06:55.466Z,99421.66
2019-03-21T03:09:26.560Z,99419.92
2019-03-21T03:11:57.675Z,99422.00
2019-03-21T03:14:28.804Z,99416.72
2019-03-21T03:16:59.873Z,99413.32
2019-03-21T03:19:30.893Z,99411.61
2019-03-21T03:22:02.043Z,99418.95
2019-03-21T03:24:34.948Z,99414.81
2019-03-21T03:27:06.062Z,99420.47
2019-03-21T03:29:37.002Z,99419.25
2019-03-21T03:32:08.164Z,99415.86
2019-03-21T03:34:39.194Z,99415.17
2019-03-21T03:37:10.410Z,99412.14
2019-03-21T03:39:41.374Z,99417.25
2019-03-21T03:42:12.541Z,99419.72
2019-03-21T03:44:43.684Z,99414.08
2019-03-21T03:47:14.682Z,99418.98
2019-03-21T03:49:45.656Z,99421.69
2019-03-21T03:52:16.843Z,99414.23
2019-03-21T03:54:48.042Z,99416.66
2019-03-21T03:57:19.258Z,99419.91
2019-03-21T03:59:50.468Z,99420.81
2019-03-21T04:02:21.728Z,99418.86
2019-03-21T04:04:52.857Z,99420.25
2019-03-21T04:07:24.121Z,99417.64
2019-03-21T04:09:55.189Z,99424.27
2019-03-21T04:12:26.607Z,99430.36
2019-03-21T04:14:57.859Z,99425.47
2019-03-21T04:17:28.916Z,99422.41
2019-03-21T04:19:59.896Z,99420.46
2019-03-21T04:22:31.032Z,99417.02
2019-03-21T04:25:02.227Z,99424.47
2019-03-21T04:27:33.426Z,99423.48
2019-03-21T04:30:05.006Z,99414.10
2019-03-21T04:32:36.120Z,99420.05
2019-03-21T04:35:08.461Z,99416.73
2019-03-21T04:37:39.450Z,99416.89
2019-03-21T04:40:12.255Z,99417.13
2019-03-21T04:42:43.405Z,99413.48
2019-03-21T04:45:17.921Z,99412.09
2019-03-21T04:47:49.047Z,99409.52
2019-03-21T04:50:23.894Z,99409.45
2019-03-21T04:52:55.316Z,99407.34
2019-03-21T04:55:26.369Z,99404.49
2019-03-21T04:57:57.433Z,99406.59
2019-03-21T05:00:31.019Z,99404.02
2019-03-21T05:03:03.397Z,99407.23
2019-03-21T05:05:34.451Z,99411.83
2019-03-21T05:08:05.599Z,99408.93
2019-03-21T05:10:36.730Z,99406.48
2019-03-21T05:13:07.885Z,99411.78
2019-03-21T05:15:40.656Z,99422.36
2019-03-21T05:18:33.806Z,99415.53
2019-03-21T05:21:05.377Z,99415.09
2019-03-21T05:23:36.557Z,99416.25
2019-03-21T05:26:07.704Z,99415.75
2019-03-21T05:28:38.667Z,99416.53
2019-03-21T05:31:14.990Z,99410.12
2019-03-21T05:33:46.185Z,99416.52
2019-03-21T05:36:17.276Z,99422.50
2019-03-21T05:38:48.348Z,99418.27
2019-03-21T05:41:19.497Z,99417.46
2019-03-21T05:44:22.670Z,99424.72
2019-03-21T05:46:53.793Z,99422.61
2019-03-21T05:49:24.861Z,99428.77
2019-03-21T05:51:56.098Z,99433.53
2019-03-21T05:54:27.057Z,99435.51
2019-03-21T05:56:58.245Z,99438.48
2019-03-21T05:59:29.287Z,99436.38
2019-03-21T06:02:00.478Z,99444.97
2019-03-21T06:04:31.650Z,99443.86
2019-03-21T06:07:14.515Z,99447.53
2019-03-21T06:09:45.438Z,99446.27
2019-03-21T06:12:16.650Z,99442.23
2019-03-21T06:14:57.117Z,99447.06
2019-03-21T06:17:29.196Z,99449.63
2019-03-21T06:20:30.192Z,99450.92
2019-03-21T06:24:09.909Z,99455.39
2019-03-21T06:27:00.400Z,99452.78
2019-03-21T06:29:31.443Z,99453.06
2019-03-21T06:32:03.970Z,99458.43
2019-03-21T06:34:35.330Z,99482.93
2019-03-21T06:37:06.417Z,99464.11
2019-03-21T06:39:37.536Z,99461.06
2019-03-21T06:42:08.753Z,99459.86
2019-03-21T06:44:39.862Z,99461.44
2019-03-21T06:47:10.877Z,99460.34
2019-03-21T06:49:41.926Z,99460.53
2019-03-21T06:52:13.040Z,99456.30
2019-03-21T06:54:44.129Z,99459.28
2019-03-21T06:57:15.158Z,99458.78
2019-03-21T06:59:46.213Z,99463.50
2019-03-21T07:02:17.239Z,99458.70
2019-03-21T07:04:48.329Z,99459.53
2019-03-21T07:07:19.289Z,99461.63
2019-03-21T07:09:50.427Z,99463.69
2019-03-21T07:12:21.511Z,99465.52
2019-03-21T07:14:52.667Z,99462.91
2019-03-21T07:17:23.711Z,99465.19
2019-03-21T07:19:54.637Z,99465.72
2019-03-21T07:22:25.678Z,99461.01
2019-03-21T07:24:56.816Z,99458.05
2019-03-21T07:27:27.805Z,99460.16
2019-03-21T07:29:58.949Z,99464.61
2019-03-21T07:32:33.534Z,99470.05
2019-03-21T07:35:02.833Z,99463.16
2019-03-21T07:37:33.998Z,99471.58
2019-03-21T07:40:06.951Z,99461.16
2019-03-21T07:42:38.077Z,99462.27
2019-03-21T07:45:10.136Z,99466.86
2019-03-21T07:47:41.319Z,99467.78
2019-03-21T07:50:13.165Z,99467.24
2019-03-21T07:52:44.302Z,99461.57
2019-03-21T07:55:15.673Z,99460.11
2019-03-21T07:57:46.890Z,99454.56
2019-03-21T08:00:18.843Z,99459.06
2019-03-21T08:02:49.976Z,99458.23
2019-03-21T08:05:21.333Z,99461.61
2019-03-21T08:07:52.361Z,99457.56
2019-03-21T08:10:23.489Z,99446.61
2019-03-21T08:12:54.561Z,99454.52
2019-03-21T08:15:25.559Z,99459.17
2019-03-21T08:17:56.733Z,99454.63
2019-03-21T08:20:27.826Z,99460.56
2019-03-21T08:22:58.974Z,99455.34
2019-03-21T08:25:30.038Z,99460.66
2019-03-21T08:28:01.154Z,99461.77
2019-03-21T08:30:37.720Z,99456.47
2019-03-21T08:33:08.866Z,99457.22
2019-03-21T08:35:40.069Z,99464.64
2019-03-21T08:38:11.099Z,99458.84
2019-03-21T08:40:42.752Z,99458.84
2019-03-21T08:43:13.836Z,99456.89
2019-03-21T08:45:45.019Z,99463.08
2019-03-21T08:48:16.141Z,99462.26
2019-03-21T08:50:47.239Z,99463.20
2019-03-21T08:53:18.320Z,99467.47
2019-03-21T08:55:49.502Z,99462.17
2019-03-21T08:58:20.473Z,99458.27
2019-03-21T09:00:51.659Z,99460.58
2019-03-21T09:03:22.773Z,99459.86
2019-03-21T09:05:54.010Z,99458.39
2019-03-21T09:08:24.988Z,99463.34
2019-03-21T09:10:56.187Z,99459.36
2019-03-21T09:13:27.259Z,99458.55
2019-03-21T09:15:58.872Z,99455.36
2019-03-21T09:18:29.921Z,99454.38
2019-03-21T09:21:00.942Z,99451.07
2019-03-21T09:23:32.120Z,99458.81
2019-03-21T09:26:03.259Z,99449.89
2019-03-21T09:28:34.376Z,99445.73
2019-03-21T09:31:05.506Z,99442.84
2019-03-21T09:33:36.637Z,99441.07
2019-03-21T09:36:07.868Z,99441.11
2019-03-21T09:38:38.950Z,99440.38
2019-03-21T09:41:10.128Z,99440.30
2019-03-21T09:43:41.259Z,99436.27
2019-03-21T09:46:12.385Z,99439.51
2019-03-21T09:48:43.411Z,99433.86
2019-03-21T09:51:14.579Z,99438.63
2019-03-21T09:53:45.843Z,99441.55
2019-03-21T09:56:17.065Z,99438.68
2019-03-21T09:58:48.140Z,99428.95
2019-03-21T10:01:19.152Z,99438.59
2019-03-21T10:03:50.209Z,99434.08
2019-03-21T10:06:21.227Z,99430.45
2019-03-21T10:08:52.351Z,99434.20
2019-03-21T10:11:23.540Z,99425.19
2019-03-21T10:13:54.683Z,99423.70
2019-03-21T10:16:25.930Z,99421.98
2019-03-21T10:18:57.099Z,99420.80
2019-03-21T10:21:28.133Z,99417.62
2019-03-21T10:23:59.190Z,99419.32
2019-03-21T10:26:30.314Z,99410.06
2019-03-21T10:29:01.373Z,99408.48
2019-03-21T10:31:32.626Z,99410.58
2019-03-21T10:34:04.040Z,99404.23
2019-03-21T10:36:35.106Z,99416.78
2019-03-21T10:39:08.776Z,99404.90
2019-03-21T10:41:39.935Z,99402.33
2019-03-21T10:44:11.009Z,99396.83
2019-03-21T10:46:42.225Z,99385.22
2019-03-21T10:49:13.587Z,99381.11
2019-03-21T10:51:54.448Z,99385.25
2019-03-21T10:54:17.399Z,99371.50
2019-03-21T10:56:48.445Z,99366.45
2019-03-21T10:59:19.580Z,99360.81
2019-03-21T11:01:50.646Z,99364.23
2019-03-21T11:04:21.667Z,99365.69
2019-03-21T11:07:00.958Z,99361.53
2019-03-21T11:09:32.627Z,99353.05
2019-03-21T11:12:03.948Z,99355.00
2019-03-21T11:14:35.385Z,99352.70
2019-03-21T11:17:06.510Z,99353.84
2019-03-21T11:19:37.669Z,99356.05
2019-03-21T11:22:08.792Z,99351.89
2019-03-21T11:24:39.790Z,99350.44
2019-03-21T11:27:11.014Z,99344.13
2019-03-21T11:29:42.234Z,99352.34
2019-03-21T11:32:13.404Z,99349.73
2019-03-21T11:34:44.524Z,99351.98
2019-03-21T11:37:15.567Z,99338.78
2019-03-21T11:39:46.700Z,99339.14
2019-03-21T11:42:17.735Z,99340.78
2019-03-21T11:44:48.867Z,99331.26
2019-03-21T11:47:19.903Z,99329.01
2019-03-21T11:49:51.026Z,99314.61
2019-03-21T11:52:22.139Z,99317.30
2019-03-21T11:54:58.999Z,99317.79
2019-03-21T11:57:30.034Z,99316.12
2019-03-21T12:00:01.182Z,99310.53
2019-03-21T12:02:33.641Z,99291.45
2019-03-21T12:05:05.010Z,99300.80
2019-03-21T12:07:36.241Z,99288.58
2019-03-21T12:10:08.517Z,99290.69
2019-03-21T12:12:39.534Z,99294.88
2019-03-21T12:15:10.827Z,99293.42
2019-03-21T12:17:42.147Z,99294.11
2019-03-21T12:20:13.761Z,99280.78
2019-03-21T12:22:47.281Z,99273.89
2019-03-21T12:25:17.810Z,99264.95
2019-03-21T12:27:48.822Z,99267.83
2019-03-21T12:30:29.624Z,99268.34
2019-03-21T12:33:00.787Z,99258.75
2019-03-21T12:35:31.821Z,99256.25
2019-03-21T12:38:03.012Z,99253.31
2019-03-21T12:40:34.121Z,99260.69
2019-03-21T12:43:06.030Z,99254.33
2019-03-21T12:45:37.443Z,99246.68
2019-03-21T12:48:08.833Z,99239.94
2019-03-21T12:50:39.956Z,99232.47
2019-03-21T12:53:10.964Z,99243.45
2019-03-21T12:55:41.927Z,99239.16
2019-03-21T12:58:12.947Z,99235.95
2019-03-21T13:00:45.954Z,99239.91
2019-03-21T13:03:17.045Z,99228.86
2019-03-21T13:05:48.196Z,99226.22
2019-03-21T13:08:19.360Z,99223.20
2019-03-21T13:10:50.575Z,99222.23
2019-03-21T13:13:21.710Z,99213.23
2019-03-21T13:15:52.795Z,99224.02
2019-03-21T13:18:23.910Z,99216.75
2019-03-21T13:20:55.046Z,99213.44
2019-03-21T13:23:26.086Z,99212.78
2019-03-21T13:25:57.391Z,99207.80
2019-03-21T13:28:28.525Z,99194.05
2019-03-21T13:30:59.758Z,99206.05
2019-03-21T13:33:30.797Z,99202.48
2019-03-21T13:36:01.907Z,99201.72
2019-03-21T13:38:33.069Z,99197.38
2019-03-21T13:41:04.245Z,99190.51
2019-03-21T13:43:35.289Z,99188.02
2019-03-21T13:46:06.541Z,99187.17
2019-03-21T13:48:37.595Z,99177.92
2019-03-21T13:51:08.715Z,99182.98
2019-03-21T13:53:39.755Z,99191.06
2019-03-21T13:56:10.910Z,99179.35
2019-03-21T13:58:41.896Z,99177.72
2019-03-21T14:01:13.125Z,99177.95
2019-03-21T14:03:44.296Z,99178.08
2019-03-21T14:06:15.379Z,99174.25
2019-03-21T14:08:46.507Z,99171.86
2019-03-21T14:11:19.346Z,99173.23
2019-03-21T14:13:50.645Z,99164.84
2019-03-21T14:16:21.861Z,99167.36
2019-03-21T14:18:52.973Z,99161.48
2019-03-21T14:21:24.095Z,99146.44
2019-03-21T14:23:55.159Z,99160.97
2019-03-21T14:26:26.228Z,99150.99
2019-03-21T14:28:57.182Z,99150.44
2019-03-21T14:31:28.264Z,99138.91
2019-03-21T14:33:59.294Z,99137.36
2019-03-21T14:36:30.506Z,99141.34
2019-03-21T14:39:01.562Z,99139.14
2019-03-21T14:41:32.714Z,99143.66
2019-03-21T14:44:03.918Z,99139.63
2019-03-21T14:46:34.995Z,99138.48
2019-03-21T14:49:06.180Z,99144.37
2019-03-21T14:51:37.304Z,99138.88
2019-03-21T14:54:08.465Z,99136.64
2019-03-21T14:56:39.606Z,99138.36
2019-03-21T14:59:10.574Z,99145.07
2019-03-21T15:01:41.691Z,99138.51
2019-03-21T15:04:12.760Z,99129.75
2019-03-21T15:06:43.866Z,99131.80
2019-03-21T15:09:15.005Z,99126.31
2019-03-21T15:11:46.104Z,99124.38
2019-03-21T15:14:17.254Z,99123.68
2019-03-21T15:16:48.251Z,99118.39
2019-03-21T15:19:19.510Z,99128.31
2019-03-21T15:21:50.734Z,99125.57
2019-03-21T15:24:21.709Z,99112.28
2019-03-21T15:26:52.749Z,99117.09
2019-03-21T15:29:23.932Z,99119.91
2019-03-21T15:31:55.119Z,99121.45
2019-03-21T15:34:26.416Z,99119.48
2019-03-21T15:36:57.583Z,99119.94
2019-03-21T15:39:28.666Z,99124.24
2019-03-21T15:41:59.988Z,99123.78
2019-03-21T15:44:31.090Z,99123.19
2019-03-21T15:47:02.260Z,99126.52
2019-03-21T15:49:33.526Z,99122.38
2019-03-21T15:52:04.963Z,99115.44
2019-03-21T15:54:36.133Z,99130.40
2019-03-21T15:57:07.256Z,99124.63
2019-03-21T15:59:38.316Z,99123.08
2019-03-21T16:02:09.399Z,99127.83
2019-03-21T16:04:40.469Z,99117.47
2019-03-21T16:07:11.541Z,99118.02
2019-03-21T16:09:42.614Z,99115.84
2019-03-21T16:12:13.579Z,99122.41
2019-03-21T16:14:44.704Z,99122.33
2019-03-21T16:17:15.806Z,99119.02
2019-03-21T16:19:47.004Z,99127.06
2019-03-21T16:22:18.201Z,99114.08
2019-03-21T16:24:49.262Z,99124.16
2019-03-21T16:27:20.302Z,99123.63
2019-03-21T16:29:51.260Z,99126.17
2019-03-21T16:32:22.301Z,99130.39
2019-03-21T16:34:53.545Z,99132.93
2019-03-21T16:37:24.637Z,99127.80
2019-03-21T16:39:55.760Z,99133.13
2019-03-21T16:42:26.782Z,99128.89
2019-03-21T16:44:57.796Z,99128.03
2019-03-21T16:47:28.835Z,99127.18
2019-03-21T16:49:59.873Z,99124.09
2019-03-21T16:52:30.916Z,99123.80
2019-03-21T16:55:01.891Z,99126.86
2019-03-21T16:57:33.041Z,99125.85
2019-03-21T17:00:05.000Z,99123.99
2019-03-21T17:02:36.175Z,99123.31
2019-03-21T17:05:08.149Z,99125.77
2019-03-21T17:07:39.147Z,99129.74
2019-03-21T17:10:11.482Z,99134.59
2019-03-21T17:12:42.671Z,99129.22
2019-03-21T17:15:14.227Z,99131.22
2019-03-21T17:17:45.462Z,99130.53
2019-03-21T17:20:16.847Z,99127.73
2019-03-21T17:22:48.004Z,99133.08
2019-03-21T17:25:19.294Z,99132.55
2019-03-21T17:27:50.384Z,99132.55
2019-03-21T17:30:21.532Z,99126.54
2019-03-21T17:32:52.814Z,99126.27
2019-03-21T17:35:23.966Z,99125.92
2019-03-21T17:37:55.273Z,99130.04
2019-03-21T17:40:26.440Z,99130.12
2019-03-21T17:42:57.448Z,99136.09
2019-03-21T17:45:28.474Z,99140.58
2019-03-21T17:47:59.645Z,99139.35
2019-03-21T17:50:30.897Z,99138.72
2019-03-21T17:53:02.036Z,99144.55
2019-03-21T17:55:33.219Z,99144.02
2019-03-21T17:58:04.840Z,99144.08
2019-03-21T18:00:36.354Z,99152.56
2019-03-21T18:03:08.967Z,99151.91
2019-03-21T18:05:40.127Z,99149.81
2019-03-21T18:08:11.361Z,99154.66
2019-03-21T18:10:42.874Z,99156.18
2019-03-21T18:13:14.066Z,99160.14
2019-03-21T18:15:45.172Z,99160.94
2019-03-21T18:18:16.273Z,99168.78
2019-03-21T18:20:47.412Z,99169.59
2019-03-21T18:23:18.524Z,99168.52
2019-03-21T18:25:49.694Z,99164.53
2019-03-21T18:28:20.993Z,99180.89
2019-03-21T18:30:52.139Z,99170.44
2019-03-21T18:33:23.308Z,99175.35
2019-03-21T18:35:54.415Z,99174.62
2019-03-21T18:38:25.615Z,99184.65
2019-03-21T18:40:56.746Z,99185.53
2019-03-21T18:43:28.270Z,99184.89
2019-03-21T18:45:59.561Z,99189.33
2019-03-21T18:48:30.641Z,99183.56
2019-03-21T18:51:01.689Z,99185.52
2019-03-21T18:53:32.786Z,99186.69
2019-03-21T18:56:04.014Z,99190.42
2019-03-21T18:58:35.050Z,99187.40
2019-03-21T19:01:06.298Z,99187.27
2019-03-21T19:03:37.391Z,99189.76
2019-03-21T19:06:08.448Z,99185.65
2019-03-21T19:08:39.484Z,99185.48
2019-03-21T19:11:10.704Z,99181.16
2019-03-21T19:13:41.890Z,99180.84
2019-03-21T19:16:13.139Z,99185.27
2019-03-21T19:18:44.212Z,99178.66
2019-03-21T19:21:15.250Z,99184.87
2019-03-21T19:23:46.306Z,99179.39
2019-03-21T19:26:17.353Z,99184.14
2019-03-21T19:28:48.444Z,99190.44
2019-03-21T19:31:19.563Z,99189.33
2019-03-21T19:33:50.701Z,99187.25
2019-03-21T19:36:21.856Z,99189.14
2019-03-21T19:38:53.173Z,99188.00
2019-03-21T19:41:24.403Z,99198.67
2019-03-21T19:43:55.610Z,99189.08
2019-03-21T19:46:33.008Z,99190.14
2019-03-21T19:49:05.368Z,99190.41
2019-03-21T19:51:37.725Z,99192.61
2019-03-21T19:54:08.893Z,99190.27
2019-03-21T19:56:40.025Z,99189.82
2019-03-21T19:59:11.224Z,99199.76
2019-03-21T20:01:42.446Z,99194.91
2019-03-21T20:04:13.657Z,99198.20
2019-03-21T20:06:46.455Z,99198.67
2019-03-21T20:09:17.776Z,99200.42
2019-03-21T20:11:49.005Z,99198.59
2019-03-21T20:14:20.193Z,99196.06
2019-03-21T20:16:51.437Z,99196.73
2019-03-21T20:19:22.652Z,99194.74
2019-03-21T20:21:53.883Z,99195.61
2019-03-21T20:24:25.178Z,99198.21
2019-03-21T20:26:56.364Z,99210.89
2019-03-21T20:29:27.513Z,99209.05
2019-03-21T20:31:59.558Z,99220.31
2019-03-21T20:34:30.666Z,99214.52
2019-03-21T20:37:02.048Z,99217.34
2019-03-21T20:39:33.274Z,99211.73
2019-03-21T20:42:04.443Z,99207.16
2019-03-21T20:44:35.558Z,99202.77
2019-03-21T20:47:06.695Z,99201.73
2019-03-21T20:49:37.791Z,99203.14
2019-03-21T20:52:08.965Z,99195.59
2019-03-21T20:54:40.091Z,99197.08
2019-03-21T20:57:11.266Z,99199.51
2019-03-21T20:59:42.399Z,99203.15
2019-03-21T21:03:27.146Z,99194.80
2019-03-21T21:05:58.426Z,99204.70
2019-03-21T21:08:29.632Z,99202.73
2019-03-21T21:11:00.735Z,99199.84
2019-03-21T21:13:31.848Z,99195.19
2019-03-21T21:16:03.159Z,99189.34
2019-03-21T21:18:34.305Z,99187.45
2019-03-21T21:21:05.552Z,99191.52
2019-03-21T21:23:36.749Z,99184.22
2019-03-21T21:26:08.082Z,99196.59
2019-03-21T21:28:39.307Z,99193.39
2019-03-21T21:31:10.565Z,99199.88
2019-03-21T21:33:41.718Z,99195.06
2019-03-21T21:36:21.609Z,99198.55
2019-03-21T21:38:45.769Z,99201.14
2019-03-21T21:41:16.866Z,99196.62
2019-03-21T21:43:48.011Z,99198.83
2019-03-21T21:46:19.161Z,99194.68
2019-03-21T21:48:50.258Z,99195.67
2019-03-21T21:51:21.534Z,99197.86
2019-03-21T21:53:52.962Z,99193.87
2019-03-21T21:56:24.333Z,99197.20
2019-03-21T21:58:55.619Z,99203.91
2019-03-21T22:01:27.901Z,99199.58
2019-03-21T22:04:04.765Z,99199.86
2019-03-21T22:06:31.783Z,99192.16
2019-03-21T22:09:02.822Z,99195.79
2019-03-21T22:11:33.830Z,99196.94
2019-03-21T22:14:05.055Z,99202.25
2019-03-21T22:16:36.179Z,99196.25
2019-03-21T22:19:07.403Z,99195.30
2019-03-21T22:21:38.498Z,99197.16
2019-03-21T22:24:09.645Z,99190.23
2019-03-21T22:26:40.971Z,99199.74
2019-03-21T22:29:12.171Z,99196.31
2019-03-21T22:31:43.284Z,99200.59
2019-03-21T22:34:14.390Z,99199.05
2019-03-21T22:36:49.683Z,99193.68
2019-03-21T22:39:18.517Z,99187.58
2019-03-21T22:41:49.792Z,99189.28
2019-03-21T22:44:20.942Z,99198.39
2019-03-21T22:46:52.114Z,99197.38
2019-03-21T22:49:23.340Z,99186.17
2019-03-21T22:51:54.433Z,99190.51
2019-03-21T22:54:25.597Z,99186.39
2019-03-21T22:56:56.717Z,99183.14
2019-03-21T22:59:27.676Z,99192.16
2019-03-21T23:01:58.796Z,99185.77
2019-03-21T23:04:29.985Z,99172.91
2019-03-21T23:07:01.271Z,99180.52
2019-03-21T23:09:32.405Z,99173.94
2019-03-21T23:12:03.882Z,99175.27
2019-03-21T23:14:35.046Z,99176.05
2019-03-21T23:17:06.475Z,99171.31
2019-03-21T23:19:37.643Z,99177.55
2019-03-21T23:22:08.817Z,99170.93
2019-03-21T23:24:39.959Z,99171.29
2019-03-21T23:27:13.151Z,99171.45
2019-03-21T23:29:44.199Z,99164.55
2019-03-21T23:32:15.246Z,99170.00
2019-03-21T23:34:46.395Z,99161.28
2019-03-21T23:37:17.442Z,99159.64
2019-03-21T23:39:48.501Z,99163.25
2019-03-21T23:42:19.624Z,99159.14
2019-03-21T23:44:50.749Z,99161.78
2019-03-21T23:47:21.767Z,99152.91
2019-03-21T23:49:52.940Z,99157.84
2019-03-21T23:52:23.966Z,99160.77
2019-03-21T23:54:54.943Z,99163.73
2019-03-21T23:57:25.961Z,99161.92
2019-03-21T23:59:57.031Z,99163.58
